Akhtubinsk, Russia
Current Conditions -  °F | °C
As of 5:00 AM on Friday 19 Dec 2014 (Local Time) from URWW Reporting Station
Light Rain Light Rain  
Wind Chill: 23°   Ceiling: 300
Heat Index: 32°   Visibility: 1.8mi
Dew Point: 32°   Wind: 11mph
Humidity: 100%   Direction: 180°S
Pressure: 29.94"   Gusts: NA
Location:  48.28°N, 46.17°E
Report Text: URWW 190200Z 18005MPS 3000 -RA BR OVC003 00/00 Q1014 TEMPO 0400FG RMK QBB090 OBST OBSC 11750040
Loading
Personal Weather Stations






























Interactive Weather Map New forecast layout! Learn more

10-Day Weather Forecast

Advertisements
Track Severe Weather on mobile